Flight Track Log - Related Links

Times and Time Zones

All times are in EDT time to prevent confusion due to time zone crossing. See the SKW5408 flight status page for this flight to view local times or setup timezone preferences in your user account.

Time Position Orientation Groundspeed Altitude Reporting Facility
EDT Latitude Longitude Course Direction KTS MPH feet Rate Location/Type
Sun 10:54:51 AM 41.9333 -87.8833 13° North 186 214 2,400  Level Chicago TRACON
Sun 10:55:39 AM 41.9333 -87.8167 90° East 244 281 4,800 2,855 Climbing Chicago TRACON
Sun 10:56:55 AM 41.9539 -87.7061 76° East 276 318 8,300 2,957 Climbing Chicago Center
Sun 10:57:00 AM 42.3827 -87.7670 20° North  Level FlightAware Approximate
Sun 10:57:57 AM 42.0303 -87.6933 North 289 333 11,600  Level Chicago Center
Sun 10:58:00 AM 42.4871 -87.7359 North  Level FlightAware Approximate
Sun 10:58:59 AM 42.1097 -87.6972 358° North 288 331 14,600  Level Chicago Center
Sun 10:59:00 AM 42.5919 -87.7044 13° North  Level FlightAware Approximate
Sun 11:00:00 AM 42.6965 -87.6714 13° North  Level FlightAware Approximate
Sun 11:00:01 AM 42.2172 -87.7033 358° North 324 373 15,000  Level Chicago Center
Sun 11:01:03 AM 42.3194 -87.7103 357° North 363 418 15,000  Level Chicago Center
Sun 11:02:05 AM 42.4208 -87.6694 17° North 380 437 15,000  Level Chicago Center
Sun 11:03:07 AM 42.5231 -87.6333 15° North 382 440 15,000 48 Level Chicago Center
Sun 11:04:09 AM 42.6375 -87.6019 11° North 373 429 15,100 48 Climbing Chicago Center
Sun 11:05:11 AM 42.7406 -87.5781 10° North 375 432 15,100  Level Chicago Center
Sun 11:06:13 AM 42.8178 -87.4872 41° Northeast 392 451 15,100 -484 Level Chicago Center
Sun 11:07:15 AM 42.8619 -87.3317 69° East 398 458 14,100 -1,258 Descending Chicago Center
Sun 11:08:17 AM 42.8994 -87.1956 69° East 387 445 12,500 -1,500 Descending Chicago Center
Sun 11:09:19 AM 42.9356 -87.0714 68° East 355 409 11,000 -1,452 Descending Chicago Center
Sun 11:10:21 AM 42.9658 -86.9636 69° East 311 358 9,500 -1,463 Descending Chicago Center
Sun 11:11:22 AM 43.0089 -86.8697 58° Northeast 294 338 8,000 -1,463 Descending Chicago Center
Sun 11:12:24 AM 43.0594 -86.7900 49° Northeast 282 325 6,500 -1,403 Descending Chicago Center
Sun 11:13:26 AM 43.1100 -86.7153 47° Northeast 269 310 5,100 -1,210 Descending Chicago Center
Sun 11:14:28 AM 43.1689 -86.6328 46° Northeast 256 295 4,000 -532 Descending Chicago Center
Sun 11:15:30 AM 43.2144 -86.5700 45° Northeast 242 278 4,000 -484 Level Chicago Center
Sun 11:16:32 AM 43.2325 -86.4853 74° East 237 273 3,000 -823 Descending Chicago Center
Sun 11:17:34 AM 43.2403 -86.4050 82° East 222 255 2,300 -339 Descending Chicago Center
Sun 11:18:36 AM 43.2378 -86.3417 93° East 186 214 2,300 -145 Level Chicago Center
Sun 11:19:38 AM 43.2228 -86.3000 116° Southeast 153 176 2,000 -581 Descending Chicago Center
Sun 11:20:40 AM 43.1922 -86.2597 136° Southeast 133 153 1,100 -629 Descending Chicago Center
Sun 11:21:42 AM 43.1694 -86.2306 137° Southeast 130 150 700 -387 Descending Chicago Center

Login

Don't have an account? Register now (free) for customized features, flight alerts, and more!